Time;durP1;ratioP1;P1;durP2;ratioP2;P2;SDS_P1;SDS_P2;PMS_P1;PMS_P2;Temp;Humidity;BMP_temperature;BMP_pressure;BME280_temperature;BME280_humidity;BME280_pressure;Samples;Min_cycle;Max_cycle;Signal;HPM_P1;HPM_P2
2023/04/05 00:00:31;;;;;;;4.40;4.00;;;3.20;1.00;;;;;;5094398;28;20382;-81
2023/04/05 00:02:58;;;;;;;5.10;4.60;;;3.10;1.00;;;;;;5077338;28;20911;-81
2023/04/05 00:05:33;;;;;;;4.95;4.55;;;3.10;1.00;;;;;;5094284;28;20370;-81
2023/04/05 00:08:00;;;;;;;4.78;4.18;;;3.10;1.00;;;;;;5093724;28;20415;-81
2023/04/05 00:10:30;;;;;;;5.32;3.65;;;3.00;1.00;;;;;;5076288;28;20595;-81
2023/04/05 00:12:56;;;;;;;4.68;4.28;;;3.10;1.00;;;;;;5095919;28;20394;-81
2023/04/05 00:15:22;;;;;;;4.40;4.00;;;3.10;1.00;;;;;;5098247;28;20879;-81
2023/04/05 00:17:47;;;;;;;4.97;4.20;;;3.10;1.00;;;;;;5095682;28;20401;-81
2023/04/05 00:20:13;;;;;;;4.50;4.10;;;3.00;1.00;;;;;;5095448;28;20400;-81
2023/04/05 00:22:42;;;;;;;4.40;4.00;;;2.90;1.00;;;;;;5076762;28;20435;-81
2023/04/05 00:25:08;;;;;;;4.32;3.92;;;3.00;1.00;;;;;;5101436;28;20468;-81
2023/04/05 00:27:33;;;;;;;3.95;3.65;;;3.00;1.00;;;;;;5103855;28;20385;-81
2023/04/05 00:29:59;;;;;;;5.80;4.30;;;3.10;1.00;;;;;;5105474;28;20374;-81
2023/04/05 00:32:25;;;;;;;4.60;4.20;;;3.00;99.90;;;;;;5086087;28;20385;-81
2023/04/05 00:34:51;;;;;;;4.80;4.20;;;3.00;1.00;;;;;;5079548;28;20422;-81
2023/04/05 00:37:16;;;;;;;4.23;3.93;;;2.90;61.40;;;;;;5086451;28;20392;-81
2023/04/05 00:39:42;;;;;;;5.00;4.50;;;3.00;1.00;;;;;;5057583;28;20391;-81
2023/04/05 00:42:08;;;;;;;4.77;4.20;;;3.10;1.00;;;;;;5057818;28;20430;-81
2023/04/05 00:44:34;;;;;;;4.93;4.53;;;3.20;1.00;;;;;;5050554;28;20386;-81
2023/04/05 00:47:05;;;;;;;4.20;3.80;;;3.10;1.00;;;;;;5040232;28;20393;-81
2023/04/05 00:49:31;;;;;;;4.95;4.55;;;3.10;1.00;;;;;;5040181;28;20416;-81
2023/04/05 00:51:58;;;;;;;5.70;4.40;;;3.10;1.00;;;;;;5058162;28;20381;-81
2023/04/05 00:54:28;;;;;;;5.10;4.20;;;3.10;1.00;;;;;;5053419;28;20396;-81
2023/04/05 00:57:00;;;;;;;6.35;4.82;;;3.10;99.90;;;;;;5065965;28;20383;-81
2023/04/05 00:59:29;;;;;;;4.82;4.32;;;3.10;1.00;;;;;;5076947;28;20415;-81
2023/04/05 01:02:15;;;;;;;4.95;4.45;;;3.30;1.00;;;;;;5078096;28;20502;-81
2023/04/05 01:04:48;;;;;;;4.70;4.30;;;3.20;1.00;;;;;;5077275;28;20455;-81
2023/04/05 01:07:26;;;;;;;5.50;5.00;;;3.20;99.90;;;;;;5058372;28;20414;-81
2023/04/05 01:09:56;;;;;;;6.50;4.17;;;3.30;1.00;;;;;;5057812;28;20399;-81
2023/04/05 01:12:25;;;;;;;4.10;3.80;;;3.20;99.90;;;;;;5060556;28;20830;-81
2023/04/05 01:14:52;;;;;;;5.43;4.65;;;3.20;99.90;;;;;;5072824;28;20387;-81
2023/04/05 01:17:23;;;;;;;5.55;4.40;;;3.30;1.00;;;;;;5097628;28;20875;-81
2023/04/05 01:19:52;;;;;;;4.70;4.07;;;3.30;1.00;;;;;;5096477;28;20386;-81
2023/04/05 01:22:51;;;;;;;4.55;4.18;;;3.30;99.90;;;;;;5097168;28;20408;-81
2023/04/05 01:25:42;;;;;;;4.85;4.30;;;3.20;1.00;;;;;;5078820;28;20394;-81
2023/04/05 01:28:26;;;;;;;4.68;4.10;;;3.20;1.00;;;;;;5078555;28;20382;-81
2023/04/05 01:31:27;;;;;;;4.50;4.03;;;3.20;99.90;;;;;;5097009;28;20469;-81
2023/04/05 01:34:19;;;;;;;4.53;4.07;;;3.20;1.00;;;;;;5033718;28;20481;-81
2023/04/05 01:36:52;;;;;;;4.45;4.10;;;3.20;99.90;;;;;;5095536;28;20464;-82
2023/04/05 01:39:19;;;;;;;5.40;4.90;;;3.20;1.00;;;;;;5096595;28;20937;-81
2023/04/05 01:41:45;;;;;;;5.10;4.20;;;3.20;49.40;;;;;;5095818;28;20777;-81
2023/04/05 01:44:10;;;;;;;5.27;4.20;;;3.00;9.90;;;;;;5092540;28;20454;-81
2023/04/05 01:46:36;;;;;;;5.20;4.70;;;3.00;1.00;;;;;;5074873;28;20474;-81
2023/04/05 01:49:01;;;;;;;4.45;4.05;;;3.00;1.00;;;;;;5075966;28;20858;-81
2023/04/05 01:51:27;;;;;;;4.70;4.20;;;2.90;1.00;;;;;;5083640;28;20380;-80
2023/04/05 01:53:52;;;;;;;4.60;4.20;;;3.10;1.00;;;;;;5075100;28;20751;-81
2023/04/05 01:56:18;;;;;;;5.15;4.10;;;2.90;1.00;;;;;;5075051;28;20399;-81
2023/04/05 01:58:43;;;;;;;4.50;4.10;;;3.00;1.00;;;;;;5076076;28;20418;-81
2023/04/05 02:01:09;;;;;;;4.80;3.85;;;3.00;1.00;;;;;;5075618;28;20379;-81
2023/04/05 02:03:35;;;;;;;4.70;4.20;;;3.00;1.00;;;;;;5074993;28;20869;-81
2023/04/05 02:06:01;;;;;;;4.67;4.30;;;2.90;1.00;;;;;;5074615;28;20463;-81
2023/04/05 02:08:26;;;;;;;4.73;4.30;;;3.00;66.60;;;;;;5056766;28;20388;-81
2023/04/05 02:10:52;;;;;;;4.20;3.80;;;2.80;1.00;;;;;;5076048;28;20392;-82
2023/04/05 02:13:20;;;;;;;4.68;3.83;;;2.80;99.90;;;;;;5074844;28;20420;-81
2023/04/05 02:15:52;;;;;;;4.60;4.20;;;2.80;1.00;;;;;;5056004;28;20410;-81
2023/04/05 02:18:21;;;;;;;4.80;4.40;;;2.80;1.00;;;;;;5074579;28;20441;-81
2023/04/05 02:20:50;;;;;;;5.70;4.57;;;2.70;99.90;;;;;;5074533;28;20900;-81
2023/04/05 02:23:17;;;;;;;4.90;4.50;;;2.70;1.00;;;;;;5057148;28;20399;-81
2023/04/05 02:25:43;;;;;;;5.18;4.20;;;2.70;99.90;;;;;;5055486;28;20379;-81
2023/04/05 02:28:08;;;;;;;4.80;4.10;;;2.70;66.90;;;;;;5073899;28;20386;-81
2023/04/05 02:30:34;;;;;;;4.63;4.20;;;2.70;99.90;;;;;;5064443;28;20502;-81
2023/04/05 02:33:00;;;;;;;4.93;4.30;;;2.60;99.90;;;;;;5073100;28;20401;-80
2023/04/05 02:35:26;;;;;;;4.88;4.47;;;2.80;99.90;;;;;;5075781;28;20412;-81
2023/04/05 02:37:51;;;;;;;4.90;4.40;;;2.60;19.40;;;;;;5075505;28;20386;-80
2023/04/05 02:40:17;;;;;;;5.10;4.28;;;2.60;1.00;;;;;;5095465;28;20378;-81
2023/04/05 02:42:42;;;;;;;5.15;4.60;;;2.60;10.50;;;;;;5094906;28;20440;-81
2023/04/05 02:45:08;;;;;;;4.70;4.30;;;2.60;1.00;;;;;;5082831;28;20946;-81
2023/04/05 02:47:34;;;;;;;5.00;4.50;;;2.60;1.00;;;;;;5058102;28;20388;-81
2023/04/05 02:49:59;;;;;;;5.60;4.32;;;2.70;99.90;;;;;;5077310;28;20858;-81
2023/04/05 02:52:25;;;;;;;6.43;4.50;;;2.70;1.00;;;;;;5075947;28;20438;-81
2023/04/05 02:54:51;;;;;;;4.67;4.10;;;2.70;99.90;;;;;;5079859;28;20600;-81
2023/04/05 02:57:17;;;;;;;6.13;4.30;;;2.70;1.00;;;;;;5068195;28;20394;-81
2023/04/05 02:59:43;;;;;;;5.75;4.35;;;2.60;1.00;;;;;;5095296;28;20397;-81
2023/04/05 03:02:09;;;;;;;4.72;4.13;;;2.70;1.00;;;;;;5069317;28;20406;-82
2023/04/05 03:04:35;;;;;;;4.90;4.50;;;2.50;1.00;;;;;;5095542;28;20438;-83
2023/04/05 03:07:02;;;;;;;4.60;4.20;;;2.50;1.00;;;;;;5093894;28;20385;-82
2023/04/05 03:09:32;;;;;;;4.83;4.40;;;2.50;47.20;;;;;;5075820;28;20744;-82
2023/04/05 03:12:02;;;;;;;6.07;4.30;;;2.50;99.90;;;;;;5094992;28;20385;-82
2023/04/05 03:14:28;;;;;;;4.30;3.90;;;2.40;99.90;;;;;;5095318;28;20382;-82
2023/04/05 03:16:54;;;;;;;4.70;4.30;;;2.40;94.20;;;;;;5078040;28;20746;-82
2023/04/05 03:19:21;;;;;;;6.20;4.70;;;2.40;99.90;;;;;;5091461;28;20382;-84
2023/04/05 03:21:47;;;;;;;6.45;4.70;;;2.40;1.00;;;;;;5089199;28;20385;-82
2023/04/05 03:24:13;;;;;;;4.90;4.50;;;2.40;1.00;;;;;;5098377;28;20419;-82
2023/04/05 03:26:39;;;;;;;4.63;4.22;;;2.40;99.90;;;;;;5109079;28;20374;-82
2023/04/05 03:29:05;;;;;;;5.00;4.50;;;2.30;99.90;;;;;;5110193;28;20406;-82
2023/04/05 03:31:30;;;;;;;5.23;4.40;;;2.20;1.00;;;;;;5087670;28;20413;-83
2023/04/05 03:33:56;;;;;;;5.67;4.60;;;2.20;1.00;;;;;;5069934;28;20390;-82
2023/04/05 03:36:21;;;;;;;4.50;4.20;;;2.20;99.90;;;;;;5067206;28;20465;-80
2023/04/05 03:38:47;;;;;;;5.13;4.50;;;2.10;1.00;;;;;;5075674;28;20393;-82
2023/04/05 03:41:12;;;;;;;6.10;4.60;;;2.10;99.90;;;;;;5075456;28;20391;-82
2023/04/05 03:43:38;;;;;;;4.40;4.00;;;2.10;1.00;;;;;;5075461;28;20394;-84
2023/04/05 03:46:03;;;;;;;7.67;4.90;;;2.10;99.90;;;;;;5074225;28;20395;-82
2023/04/05 03:48:29;;;;;;;5.50;5.00;;;2.10;99.90;;;;;;5073710;28;20459;-83
2023/04/05 03:50:55;;;;;;;4.43;4.03;;;2.10;1.00;;;;;;5073372;28;21017;-82
2023/04/05 03:53:20;;;;;;;4.83;4.33;;;2.00;99.90;;;;;;5054731;28;20516;-82
2023/04/05 03:55:48;;;;;;;5.45;4.22;;;1.80;1.00;;;;;;5073173;28;20477;-82
2023/04/05 03:58:14;;;;;;;4.60;4.20;;;1.70;1.00;;;;;;5055407;28;20410;-82
2023/04/05 04:00:40;;;;;;;5.95;4.53;;;1.60;1.00;;;;;;5084187;28;20408;-82
2023/04/05 04:03:06;;;;;;;5.00;4.20;;;1.70;1.00;;;;;;5075793;28;20426;-82
2023/04/05 04:05:37;;;;;;;4.70;4.20;;;1.80;99.90;;;;;;5057515;28;20407;-83
2023/04/05 04:08:05;;;;;;;5.50;4.70;;;1.80;1.00;;;;;;5075164;28;20467;-82
2023/04/05 04:10:31;;;;;;;4.82;4.40;;;1.90;99.90;;;;;;5056460;28;20395;-82
2023/04/05 04:12:57;;;;;;;4.80;4.30;;;1.90;1.00;;;;;;5074012;28;20388;-82
2023/04/05 04:15:22;;;;;;;4.82;4.40;;;1.90;1.00;;;;;;5074351;28;20384;-82
2023/04/05 04:17:48;;;;;;;6.93;4.53;;;1.80;1.00;;;;;;5073182;28;20379;-82
2023/04/05 04:20:14;;;;;;;4.95;4.38;;;1.70;99.90;;;;;;5054790;28;20398;-82
2023/04/05 04:22:39;;;;;;;4.57;4.18;;;1.80;1.00;;;;;;5073626;28;20404;-82
2023/04/05 04:25:10;;;;;;;5.27;4.53;;;1.60;99.90;;;;;;5055285;28;20391;-82
2023/04/05 04:27:40;;;;;;;5.30;4.50;;;1.60;99.90;;;;;;5072837;28;20754;-82
2023/04/05 04:30:09;;;;;;;4.97;4.50;;;1.60;1.00;;;;;;5081676;28;20869;-82
2023/04/05 04:32:50;;;;;;;4.97;4.47;;;1.60;99.90;;;;;;5074368;28;20392;-82
2023/04/05 04:35:19;;;;;;;5.47;4.60;;;1.60;1.00;;;;;;5076845;28;20780;-82
2023/04/05 04:37:45;;;;;;;5.70;5.00;;;1.60;1.00;;;;;;5085215;28;20880;-83
2023/04/05 04:40:16;;;;;;;6.10;4.70;;;1.70;99.90;;;;;;5093959;28;20393;-82
2023/04/05 04:42:45;;;;;;;5.30;4.75;;;1.60;1.00;;;;;;5093190;28;20420;-82
2023/04/05 04:45:16;;;;;;;5.60;5.05;;;1.60;99.90;;;;;;5063788;28;20395;-82
2023/04/05 04:47:42;;;;;;;5.22;4.80;;;1.50;99.90;;;;;;5054554;28;20473;-82
2023/04/05 04:50:09;;;;;;;5.85;4.60;;;1.50;99.90;;;;;;5072797;28;20914;-82
2023/04/05 04:52:35;;;;;;;5.00;4.40;;;1.40;99.90;;;;;;5054630;28;20388;-82
2023/04/05 04:55:01;;;;;;;5.67;5.17;;;1.40;99.90;;;;;;5080586;28;20896;-82
2023/04/05 04:57:27;;;;;;;4.80;4.40;;;1.50;99.90;;;;;;5084384;28;21034;-82
2023/04/05 04:59:53;;;;;;;6.50;5.05;;;1.40;99.90;;;;;;5066594;28;20417;-82
2023/04/05 05:02:23;;;;;;;5.78;5.28;;;1.50;99.90;;;;;;5076548;28;20420;-82
2023/04/05 05:04:48;;;;;;;6.22;5.43;;;1.60;1.00;;;;;;5094346;28;20377;-82
2023/04/05 05:07:14;;;;;;;5.63;4.90;;;1.70;1.00;;;;;;5075582;28;20879;-82
2023/04/05 05:09:40;;;;;;;5.97;4.68;;;1.70;99.90;;;;;;5087225;28;20415;-82
2023/04/05 05:12:05;;;;;;;5.68;5.20;;;1.50;1.00;;;;;;5081840;28;20387;-82
2023/04/05 05:14:31;;;;;;;5.75;5.20;;;1.50;1.00;;;;;;5055917;28;20395;-82
2023/04/05 05:16:57;;;;;;;5.63;5.13;;;1.50;99.90;;;;;;5073382;28;20513;-82
2023/04/05 05:19:23;;;;;;;5.85;5.25;;;1.60;1.00;;;;;;5055433;28;20486;-82
2023/04/05 05:21:51;;;;;;;6.20;5.60;;;1.60;19.70;;;;;;5062181;28;20442;-82
2023/04/05 05:24:16;;;;;;;5.82;5.20;;;1.50;99.90;;;;;;5055137;28;20384;-83
2023/04/05 05:26:42;;;;;;;6.60;5.87;;;1.40;99.30;;;;;;5055113;28;20376;-82
2023/04/05 05:29:08;;;;;;;6.00;5.40;;;1.30;99.90;;;;;;5055942;28;20388;-82
2023/04/05 05:31:33;;;;;;;5.70;5.20;;;1.40;1.00;;;;;;5074746;28;20388;-82
2023/04/05 05:33:59;;;;;;;5.93;4.70;;;1.40;1.00;;;;;;5077057;28;20380;-82
2023/04/05 05:36:26;;;;;;;6.00;5.50;;;1.40;99.90;;;;;;5076734;28;20390;-82
2023/04/05 05:38:53;;;;;;;5.10;4.70;;;1.60;99.90;;;;;;5076465;28;20445;-82
2023/04/05 05:41:20;;;;;;;7.07;4.63;;;1.40;78.00;;;;;;5076399;28;20380;-82
2023/04/05 05:43:45;;;;;;;5.95;5.45;;;1.60;99.90;;;;;;5071080;28;20434;-85
2023/04/05 05:46:11;;;;;;;5.85;5.30;;;1.60;96.80;;;;;;5060734;28;20429;-85
2023/04/05 05:48:37;;;;;;;6.10;5.50;;;1.60;6.70;;;;;;5041044;28;20413;-85
2023/04/05 05:51:08;;;;;;;5.53;4.80;;;1.60;1.00;;;;;;5061581;28;20869;-86
2023/04/05 05:53:35;;;;;;;5.72;5.00;;;1.60;99.90;;;;;;5072806;28;20447;-86
2023/04/05 05:56:00;;;;;;;5.90;5.30;;;1.60;99.90;;;;;;5081143;28;20386;-86
2023/04/05 05:58:26;;;;;;;5.77;4.90;;;2.00;99.90;;;;;;5082630;28;20532;-86
2023/04/05 06:00:55;;;;;;;6.80;5.10;;;1.60;62.60;;;;;;5097586;28;20393;-84
2023/04/05 06:03:22;;;;;;;5.40;4.90;;;1.80;69.60;;;;;;5078837;28;20410;-84
2023/04/05 06:05:55;;;;;;;4.97;4.50;;;1.80;66.40;;;;;;5080311;28;20390;-83
2023/04/05 06:08:21;;;;;;;4.70;4.25;;;1.90;57.70;;;;;;5078062;28;20389;-83
2023/04/05 06:10:47;;;;;;;5.45;5.05;;;1.90;60.80;;;;;;5097151;28;20459;-84
2023/04/05 06:13:13;;;;;;;5.50;5.00;;;2.00;59.90;;;;;;5078415;28;20408;-83
2023/04/05 06:15:38;;;;;;;5.10;4.60;;;2.00;56.90;;;;;;5098372;28;20382;-83
2023/04/05 06:18:04;;;;;;;6.30;5.27;;;2.10;55.20;;;;;;5097880;28;20398;-83
2023/04/05 06:20:30;;;;;;;5.73;5.13;;;2.10;58.00;;;;;;5083115;28;20896;-82
2023/04/05 06:22:55;;;;;;;6.57;5.10;;;2.20;55.10;;;;;;5101938;28;20416;-83
2023/04/05 06:25:21;;;;;;;5.17;4.67;;;2.30;58.50;;;;;;5100569;28;20481;-83
2023/04/05 06:27:46;;;;;;;6.10;4.90;;;2.30;53.70;;;;;;5091725;28;20764;-83
2023/04/05 06:30:12;;;;;;;4.90;4.50;;;2.40;55.50;;;;;;5100861;28;20469;-83
2023/04/05 06:32:38;;;;;;;5.15;4.65;;;2.40;48.70;;;;;;5083980;28;20394;-83
2023/04/05 06:35:04;;;;;;;5.30;4.80;;;2.50;45.40;;;;;;5081802;28;20900;-84
2023/04/05 06:37:30;;;;;;;5.65;4.70;;;2.60;99.90;;;;;;5102009;28;20473;-84
2023/04/05 06:39:55;;;;;;;5.00;4.50;;;2.70;44.90;;;;;;5078279;28;20417;-85
2023/04/05 06:42:21;;;;;;;5.40;4.90;;;2.80;44.70;;;;;;5067562;28;20405;-80
2023/04/05 06:44:46;;;;;;;6.57;5.30;;;2.80;43.20;;;;;;5076709;28;20811;-81
2023/04/05 06:47:12;;;;;;;6.50;5.10;;;2.80;42.50;;;;;;5075129;28;20525;-82
2023/04/05 06:49:38;;;;;;;6.78;5.25;;;2.90;42.70;;;;;;5056843;28;20376;-82
2023/04/05 06:52:07;;;;;;;5.47;4.97;;;3.00;43.10;;;;;;5073848;28;20890;-82
2023/04/05 06:54:36;;;;;;;8.50;5.57;;;3.00;39.30;;;;;;5061646;28;20925;-82
2023/04/05 06:57:01;;;;;;;5.60;5.00;;;3.10;37.70;;;;;;5069329;28;20382;-82
2023/04/05 06:59:28;;;;;;;5.23;4.73;;;3.30;36.50;;;;;;5069720;28;20514;-82
2023/04/05 07:01:54;;;;;;;6.20;5.60;;;3.10;34.70;;;;;;5093881;28;20389;-82
2023/04/05 07:04:20;;;;;;;4.88;4.43;;;3.20;36.30;;;;;;5093932;28;20455;-83
2023/04/05 07:06:46;;;;;;;5.93;5.33;;;3.30;35.70;;;;;;5093647;28;20502;-82
2023/04/05 07:09:11;;;;;;;5.20;4.80;;;3.30;37.90;;;;;;5075385;28;20401;-82
2023/04/05 07:11:38;;;;;;;6.23;5.40;;;3.40;33.10;;;;;;5093665;28;20397;-82
2023/04/05 07:14:04;;;;;;;5.95;5.45;;;3.60;44.00;;;;;;5103369;28;20401;-82
2023/04/05 07:16:30;;;;;;;6.10;5.30;;;3.70;33.70;;;;;;5096223;28;20382;-82
2023/04/05 07:18:56;;;;;;;8.57;5.03;;;3.70;27.50;;;;;;5077481;28;20378;-82
2023/04/05 07:21:22;;;;;;;5.90;5.30;;;3.60;29.80;;;;;;5093768;28;20382;-82
2023/04/05 07:23:48;;;;;;;5.47;4.97;;;3.80;30.70;;;;;;5093385;28;20405;-82
2023/04/05 07:26:13;;;;;;;6.93;5.40;;;3.90;29.90;;;;;;5093560;28;20374;-82
2023/04/05 07:28:39;;;;;;;7.87;6.10;;;4.00;31.40;;;;;;5093899;28;20424;-82
2023/04/05 07:31:06;;;;;;;7.03;6.33;;;4.10;34.60;;;;;;5061404;28;20445;-86
2023/04/05 07:33:32;;;;;;;6.75;6.15;;;4.20;99.90;;;;;;5073523;28;20471;-84
2023/04/05 07:35:58;;;;;;;6.93;6.13;;;4.30;99.90;;;;;;5053603;28;20391;-85
2023/04/05 07:38:24;;;;;;;7.17;6.47;;;4.40;1.00;;;;;;5056114;28;20838;-85
2023/04/05 07:40:50;;;;;;;6.07;5.57;;;4.40;99.90;;;;;;5054925;28;20391;-85
2023/04/05 07:43:17;;;;;;;6.57;5.88;;;4.30;99.90;;;;;;5073068;28;20448;-85
2023/04/05 07:45:43;;;;;;;8.02;5.50;;;4.40;99.90;;;;;;5055407;28;20477;-85
2023/04/05 07:48:09;;;;;;;6.70;5.70;;;4.50;32.20;;;;;;5055593;28;20398;-85
2023/04/05 07:50:35;;;;;;;7.25;5.30;;;4.50;31.00;;;;;;5054260;28;20383;-86
2023/04/05 07:53:01;;;;;;;6.07;5.40;;;4.50;29.80;;;;;;5056370;28;20399;-82
2023/04/05 07:55:26;;;;;;;7.23;5.47;;;4.60;30.60;;;;;;5074467;28;20380;-85
2023/04/05 07:57:55;;;;;;;5.10;4.57;;;4.80;28.50;;;;;;5074439;28;20399;-84
2023/04/05 08:00:21;;;;;;;6.10;5.20;;;4.90;26.30;;;;;;5073832;28;20386;-83
2023/04/05 08:02:46;;;;;;;5.50;5.00;;;4.90;26.40;;;;;;5055164;28;20848;-84
2023/04/05 08:05:12;;;;;;;6.07;5.47;;;4.90;28.70;;;;;;5053344;28;20383;-85
2023/04/05 08:07:37;;;;;;;6.37;5.20;;;4.90;28.80;;;;;;5054520;28;20447;-84
2023/04/05 08:10:03;;;;;;;9.03;6.30;;;4.90;30.60;;;;;;5083115;22;20429;-85
2023/04/05 08:12:31;;;;;;;9.05;6.07;;;4.90;31.40;;;;;;5059556;28;20388;-86
2023/04/05 08:14:56;;;;;;;6.45;5.80;;;4.70;30.50;;;;;;5074872;28;20381;-89
2023/04/05 08:17:25;;;;;;;6.07;5.50;;;4.80;36.40;;;;;;5063014;28;20465;-87
2023/04/05 08:19:52;;;;;;;6.10;5.57;;;5.00;31.90;;;;;;5059989;28;20381;-86
2023/04/05 08:22:18;;;;;;;6.10;5.40;;;5.10;34.70;;;;;;5060553;28;20406;-87
2023/04/05 08:24:43;;;;;;;6.10;5.50;;;5.10;35.10;;;;;;5053961;28;20396;-87
2023/04/05 08:27:09;;;;;;;6.32;5.63;;;5.30;30.60;;;;;;5054897;28;20459;-85
2023/04/05 08:29:35;;;;;;;5.88;5.28;;;5.30;29.30;;;;;;5055480;28;20393;-86
2023/04/05 08:32:00;;;;;;;6.10;5.50;;;5.30;29.40;;;;;;5056284;28;20382;-86
2023/04/05 08:34:26;;;;;;;7.82;5.90;;;5.30;25.60;;;;;;5067349;28;20420;-87
2023/04/05 08:36:51;;;;;;;8.75;5.80;;;5.40;23.80;;;;;;5075864;28;20408;-86
2023/04/05 08:39:17;;;;;;;7.03;5.60;;;5.50;23.60;;;;;;5075911;28;20397;-86
2023/04/05 08:41:56;;;;;;;6.35;5.75;;;5.50;23.00;;;;;;5075429;28;20385;-87
2023/04/05 08:44:24;;;;;;;6.50;5.90;;;5.50;21.80;;;;;;5056395;28;20433;-85
2023/04/05 08:46:50;;;;;;;6.88;5.63;;;5.30;19.60;;;;;;5070820;28;20394;-86
2023/04/05 08:49:16;;;;;;;5.97;5.47;;;5.50;17.90;;;;;;5054200;28;20389;-87
2023/04/05 08:51:42;;;;;;;5.47;4.97;;;5.60;19.10;;;;;;5054553;28;20501;-86
2023/04/05 08:54:08;;;;;;;6.00;4.70;;;5.60;15.50;;;;;;5054539;28;20410;-88
2023/04/05 08:56:35;;;;;;;5.40;4.90;;;5.80;11.00;;;;;;5052684;28;20389;-88
2023/04/05 08:59:04;;;;;;;4.80;4.30;;;5.90;9.60;;;;;;5053809;28;20401;-88
2023/04/05 09:01:32;;;;;;;5.50;4.77;;;5.90;11.30;;;;;;5058197;28;20385;-87
2023/04/05 09:04:05;;;;;;;5.00;4.60;;;6.00;10.50;;;;;;5054321;28;20422;-86
2023/04/05 09:06:38;;;;;;;5.10;4.60;;;6.10;9.10;;;;;;5055672;28;20385;-87
2023/04/05 09:09:07;;;;;;;5.75;5.15;;;6.00;9.40;;;;;;5057251;28;20420;-86
2023/04/05 09:11:34;;;;;;;5.77;4.50;;;6.00;7.30;;;;;;5056651;28;20446;-87
2023/04/05 09:14:04;;;;;;;5.00;4.60;;;6.20;9.90;;;;;;5058529;28;20863;-87
2023/04/05 09:16:36;;;;;;;5.10;4.60;;;6.30;6.50;;;;;;5055801;28;20403;-87
2023/04/05 09:19:01;;;;;;;4.45;4.15;;;6.40;8.00;;;;;;5058860;28;20384;-87
2023/04/05 09:21:28;;;;;;;5.00;4.50;;;6.50;7.10;;;;;;5056730;28;20760;-86
2023/04/05 09:23:54;;;;;;;5.10;4.70;;;6.50;5.80;;;;;;5057932;28;20957;-87
2023/04/05 09:26:23;;;;;;;5.93;4.85;;;6.50;6.30;;;;;;5055638;28;20391;-87
2023/04/05 09:28:49;;;;;;;5.13;3.97;;;6.50;6.20;;;;;;5052644;28;20445;-87
2023/04/05 09:31:35;;;;;;;4.40;4.00;;;7.40;5.30;;;;;;5061269;28;20410;-87
2023/04/05 09:34:04;;;;;;;5.03;4.53;;;6.80;7.40;;;;;;5054822;28;20385;-86
2023/04/05 09:36:33;;;;;;;5.85;5.30;;;7.20;6.60;;;;;;5071631;28;20384;-87
2023/04/05 09:39:08;;;;;;;5.40;4.85;;;7.00;3.50;;;;;;5064546;28;20452;-87
2023/04/05 09:41:35;;;;;;;5.05;4.20;;;7.00;6.40;;;;;;5074305;28;20808;-87
2023/04/05 09:44:01;;;;;;;5.00;4.55;;;7.30;5.70;;;;;;5048607;28;20826;-86
2023/04/05 09:46:32;;;;;;;4.97;4.40;;;7.40;4.80;;;;;;5056713;28;20459;-86
2023/04/05 09:49:00;;;;;;;4.78;4.38;;;7.20;6.80;;;;;;5057482;28;20395;-88
2023/04/05 09:51:35;;;;;;;6.65;4.95;;;7.40;5.70;;;;;;5073086;28;20380;-85
2023/04/05 09:54:09;;;;;;;5.68;4.82;;;7.50;5.10;;;;;;5081837;28;20750;-86
2023/04/05 09:56:56;;;;;;;5.70;5.20;;;7.40;5.70;;;;;;5037346;28;20467;-88
2023/04/05 09:59:25;;;;;;;5.20;4.70;;;7.30;6.70;;;;;;5038851;28;20395;-86
2023/04/05 10:01:51;;;;;;;5.50;4.80;;;7.40;7.00;;;;;;5035871;28;20398;-87
2023/04/05 10:04:20;;;;;;;5.45;4.95;;;7.60;6.80;;;;;;5041033;28;20395;-88
2023/04/05 10:06:51;;;;;;;5.90;5.30;;;7.70;7.80;;;;;;5058083;28;20429;-88
2023/04/05 10:09:18;;;;;;;5.47;4.97;;;7.50;7.30;;;;;;5057591;28;20395;-86
2023/04/05 10:11:44;;;;;;;7.43;5.10;;;7.20;7.40;;;;;;5046436;28;20391;-86
2023/04/05 10:14:15;;;;;;;6.23;4.57;;;7.40;7.00;;;;;;5037469;28;20468;-87
2023/04/05 10:17:08;;;;;;;6.00;5.40;;;7.60;6.00;;;;;;5036659;28;20394;-87
2023/04/05 10:19:55;;;;;;;5.38;4.88;;;7.90;6.50;;;;;;5038166;28;20445;-88
2023/04/05 10:22:50;;;;;;;5.50;5.00;;;7.60;7.10;;;;;;5038321;28;20418;-85
2023/04/05 10:25:38;;;;;;;5.70;5.00;;;7.90;6.60;;;;;;5020271;28;20757;-86
2023/04/05 10:28:09;;;;;;;6.10;5.50;;;7.90;6.10;;;;;;5036663;28;20383;-89
2023/04/05 10:30:42;;;;;;;6.40;5.20;;;7.90;6.80;;;;;;5036693;28;20877;-87
2023/04/05 10:33:30;;;;;;;5.53;5.03;;;7.90;7.00;;;;;;5039938;28;20390;-86
2023/04/05 10:36:05;;;;;;;5.88;5.28;;;8.00;7.20;;;;;;5036348;28;20390;-86
2023/04/05 10:38:43;;;;;;;5.82;5.32;;;7.60;6.50;;;;;;5036170;28;20395;-86
2023/04/05 10:41:11;;;;;;;6.07;5.28;;;7.40;5.80;;;;;;5036577;28;20437;-86
2023/04/05 10:43:39;;;;;;;6.30;5.70;;;7.50;6.20;;;;;;5035250;28;20402;-87
2023/04/05 10:46:06;;;;;;;6.70;6.00;;;7.60;6.20;;;;;;5034333;28;20391;-86
2023/04/05 10:48:57;;;;;;;5.70;4.82;;;7.90;5.80;;;;;;5037517;28;20900;-86
2023/04/05 10:51:25;;;;;;;7.45;5.90;;;7.90;6.10;;;;;;5039213;28;20580;-85
2023/04/05 10:53:51;;;;;;;5.50;4.93;;;7.90;5.30;;;;;;5045202;28;20386;-86
2023/04/05 10:56:18;;;;;;;6.07;5.40;;;8.00;5.50;;;;;;5050912;28;20399;-86
2023/04/05 10:58:45;;;;;;;7.97;5.80;;;8.00;5.50;;;;;;5043245;28;20379;-87
2023/04/05 11:01:12;;;;;;;6.40;5.80;;;8.10;5.50;;;;;;5039256;28;20487;-87
2023/04/05 11:03:46;;;;;;;7.18;5.97;;;8.20;5.40;;;;;;5042522;28;20405;-86
2023/04/05 11:06:24;;;;;;;5.90;5.40;;;8.40;6.90;;;;;;5036897;28;20438;-89
2023/04/05 11:08:56;;;;;;;5.90;5.30;;;8.40;4.50;;;;;;5056031;28;20413;-87
2023/04/05 11:11:36;;;;;;;6.30;5.40;;;8.70;4.80;;;;;;5056974;28;20382;-87
2023/04/05 11:14:18;;;;;;;5.70;5.20;;;8.60;3.90;;;;;;5056644;28;20385;-86
2023/04/05 11:16:46;;;;;;;6.50;5.55;;;8.60;3.30;;;;;;5056059;28;20794;-87
2023/04/05 11:19:15;;;;;;;5.97;5.47;;;8.90;3.00;;;;;;5055622;28;20390;-86
2023/04/05 11:21:43;;;;;;;6.60;5.88;;;9.20;3.50;;;;;;5054012;28;20805;-87
2023/04/05 11:24:16;;;;;;;6.40;5.80;;;9.20;3.10;;;;;;5053769;28;20401;-87
2023/04/05 11:26:42;;;;;;;6.60;6.00;;;9.30;2.70;;;;;;5054822;28;20489;-87
2023/04/05 11:29:10;;;;;;;6.83;6.13;;;9.80;1.60;;;;;;5054732;28;20827;-87
2023/04/05 11:31:55;;;;;;;6.78;5.80;;;9.90;1.00;;;;;;5055780;28;20438;-88
2023/04/05 11:34:23;;;;;;;6.20;5.60;;;9.70;1.00;;;;;;5054534;28;20464;-87
2023/04/05 11:36:52;;;;;;;7.57;5.30;;;10.50;1.00;;;;;;5053054;28;20424;-86
2023/04/05 11:39:20;;;;;;;5.60;5.20;;;11.40;1.00;;;;;;5071673;28;20385;-87
2023/04/05 11:41:54;;;;;;;6.30;5.70;;;11.40;1.00;;;;;;5068045;28;20377;-89
2023/04/05 11:44:21;;;;;;;7.30;5.43;;;11.60;1.00;;;;;;5092989;28;20413;-90
2023/04/05 11:46:47;;;;;;;6.47;5.88;;;11.60;1.00;;;;;;5092730;28;20423;-89
2023/04/05 11:49:13;;;;;;;6.43;5.93;;;12.90;1.00;;;;;;5091340;28;20473;-91
2023/04/05 11:51:47;;;;;;;5.30;4.80;;;12.20;1.00;;;;;;5086867;28;20488;-89
2023/04/05 11:54:33;;;;;;;6.38;5.88;;;12.00;1.00;;;;;;5082613;28;20392;-86
2023/04/05 11:57:00;;;;;;;6.18;5.57;;;12.70;1.00;;;;;;5053719;28;20846;-86
2023/04/05 11:59:34;;;;;;;5.88;5.35;;;12.20;1.00;;;;;;5056738;28;20385;-86
2023/04/05 12:02:06;;;;;;;5.47;4.97;;;12.70;1.00;;;;;;5056381;28;20382;-86
2023/04/05 12:04:32;;;;;;;5.80;5.30;;;13.30;1.00;;;;;;5053961;28;20755;-86
2023/04/05 12:07:15;;;;;;;5.60;5.10;;;12.30;1.00;;;;;;5066086;28;20373;-89
2023/04/05 12:10:07;;;;;;;5.30;4.90;;;13.30;1.00;;;;;;5075740;28;20392;-89
2023/04/05 12:12:38;;;;;;;5.80;5.40;;;13.30;1.00;;;;;;5070546;28;20405;-86
2023/04/05 12:15:07;;;;;;;5.88;5.28;;;13.00;1.00;;;;;;5051971;28;20425;-87
2023/04/05 12:17:57;;;;;;;5.40;4.90;;;13.30;1.00;;;;;;5051642;28;20756;-87
2023/04/05 12:20:24;;;;;;;5.70;5.20;;;14.20;1.00;;;;;;5053982;28;20747;-86
2023/04/05 12:22:52;;;;;;;6.20;5.70;;;13.90;1.00;;;;;;5054259;28;20408;-87
2023/04/05 12:25:18;;;;;;;6.40;5.00;;;14.40;1.00;;;;;;5057270;28;20484;-86
2023/04/05 12:27:45;;;;;;;5.63;5.03;;;13.50;1.00;;;;;;5052972;28;20990;-87
2023/04/05 12:30:19;;;;;;;5.80;5.20;;;14.10;1.00;;;;;;5054851;28;20377;-88
2023/04/05 12:32:49;;;;;;;5.60;5.10;;;13.90;1.00;;;;;;5056224;28;20814;-86
2023/04/05 12:35:16;;;;;;;5.85;5.35;;;13.70;1.00;;;;;;5052521;28;20393;-88
2023/04/05 12:37:42;;;;;;;5.87;4.77;;;14.50;1.00;;;;;;5053755;28;20381;-86
2023/04/05 12:40:09;;;;;;;5.43;5.03;;;15.10;1.00;;;;;;5055895;28;20391;-88
2023/04/05 12:42:38;;;;;;;5.80;5.22;;;14.80;1.00;;;;;;5063598;28;20397;-87
2023/04/05 12:45:05;;;;;;;5.63;5.00;;;14.00;1.00;;;;;;5057811;28;20397;-86
2023/04/05 12:47:34;;;;;;;5.30;4.80;;;15.10;1.00;;;;;;5056729;28;20412;-85
2023/04/05 12:50:14;;;;;;;6.80;6.20;;;13.20;1.00;;;;;;5058899;28;20933;-86
2023/04/05 12:52:51;;;;;;;5.30;4.80;;;14.70;1.00;;;;;;5059650;28;20392;-86
2023/04/05 12:55:17;;;;;;;6.45;5.45;;;14.40;1.00;;;;;;5058913;28;20510;-87
2023/04/05 12:57:43;;;;;;;6.00;5.40;;;14.70;1.00;;;;;;5056590;28;20429;-86
2023/04/05 13:00:09;;;;;;;7.07;5.40;;;14.40;1.00;;;;;;5058181;28;20389;-87
2023/04/05 13:02:35;;;;;;;5.55;5.05;;;13.90;1.00;;;;;;5058684;28;20407;-85
2023/04/05 13:05:00;;;;;;;6.07;5.47;;;13.40;1.00;;;;;;5057973;28;20409;-86
2023/04/05 13:07:26;;;;;;;7.03;5.63;;;13.50;1.00;;;;;;5077714;28;20389;-87
2023/04/05 13:09:51;;;;;;;5.40;4.90;;;13.00;1.00;;;;;;5079775;28;20401;-88